Time;durP1;ratioP1;P1;durP2;ratioP2;P2;SDS_P1;SDS_P2;PMS_P1;PMS_P2;Temp;Humidity;BMP_temperature;BMP_pressure;BME280_temperature;BME280_humidity;BME280_pressure;Samples;Min_cycle;Max_cycle;Signal;HPM_P1;HPM_P2
2023/04/28 00:01:15;;;;;;;0.60;0.40;;;;;;;22.07;36.26;101279.31;5018599;28;96753;-75
2023/04/28 00:03:41;;;;;;;0.50;0.40;;;;;;;22.07;36.30;101279.31;5019174;28;97581;-76
2023/04/28 00:06:10;;;;;;;0.68;0.40;;;;;;;22.07;35.95;101271.09;5012300;28;97346;-74
2023/04/28 00:08:36;;;;;;;0.50;0.40;;;;;;;22.08;36.15;101270.06;5022540;28;97219;-75
2023/04/28 00:11:03;;;;;;;0.45;0.40;;;;;;;22.07;36.18;101262.91;5020985;27;96759;-75
2023/04/28 00:13:29;;;;;;;0.30;0.30;;;;;;;22.09;35.96;101260.00;5029182;28;97564;-75
2023/04/28 00:15:56;;;;;;;0.55;0.40;;;;;;;22.08;36.11;101253.66;5023468;27;97243;-74
2023/04/28 00:18:22;;;;;;;0.45;0.35;;;;;;;22.09;36.11;101258.09;5019670;28;96731;-75
2023/04/28 00:20:49;;;;;;;0.60;0.30;;;;;;;;;;5017893;28;96630;-75
2023/04/28 00:23:15;;;;;;;0.40;0.30;;;;;;;22.09;35.87;101260.84;5024418;28;97083;-75
2023/04/28 00:25:42;;;;;;;0.50;0.40;;;;;;;;;;5024776;28;96995;-75
2023/04/28 00:28:08;;;;;;;0.60;0.50;;;;;;;22.09;36.06;101247.16;5022751;28;97207;-75
2023/04/28 00:30:35;;;;;;;0.60;0.40;;;;;;;22.10;35.98;101251.59;5000618;28;98813;-75
2023/04/28 00:33:01;;;;;;;0.40;0.32;;;;;;;22.09;36.12;101244.44;5017402;28;96883;-75
2023/04/28 00:35:28;;;;;;;0.30;0.30;;;;;;;22.10;36.16;101246.13;5017547;28;96846;-75
2023/04/28 00:37:54;;;;;;;0.32;0.32;;;;;;;22.11;36.20;101249.72;5022421;28;96933;-75
2023/04/28 00:40:21;;;;;;;0.60;0.30;;;;;;;22.10;36.10;101243.41;4997954;28;98492;-75
2023/04/28 00:42:49;;;;;;;0.47;0.45;;;;;;;22.09;36.29;101252.63;5004271;28;99147;-75
2023/04/28 00:45:16;;;;;;;0.40;0.40;;;;;;;22.10;35.86;101237.94;5021856;28;97406;-75
2023/04/28 00:47:43;;;;;;;0.50;0.32;;;;;;;22.09;36.34;101230.75;5013473;28;96900;-75
2023/04/28 00:50:09;;;;;;;0.30;0.30;;;;;;;22.09;36.25;101228.00;5019299;28;100648;-75
2023/04/28 00:52:38;;;;;;;0.40;0.32;;;;;;;22.09;35.96;101222.53;5024502;27;97045;-75
2023/04/28 00:55:08;;;;;;;0.40;0.30;;;;;;;22.09;35.93;101224.44;5017953;28;98799;-74
2023/04/28 00:57:35;;;;;;;0.40;0.30;;;;;;;22.09;36.33;101222.53;5026043;27;97194;-75
2023/04/28 01:00:03;;;;;;;0.70;0.40;;;;;;;22.08;35.72;101226.31;5024086;27;97684;-75
2023/04/28 01:02:30;;;;;;;0.52;0.30;;;;;;;22.08;36.28;101220.84;5023672;28;97435;-74
2023/04/28 01:04:58;;;;;;;0.55;0.40;;;;;;;22.08;36.23;101212.63;5019655;28;96917;-74
2023/04/28 01:07:24;;;;;;;0.30;0.30;;;;;;;22.08;36.13;101207.16;5023127;28;96599;-74
2023/04/28 01:09:51;;;;;;;1.15;0.35;;;;;;;22.08;36.06;101207.16;5020604;27;96820;-74
2023/04/28 01:12:23;;;;;;;0.50;0.30;;;;;;;22.08;36.27;101206.31;5009190;28;98766;-74
2023/04/28 01:14:52;;;;;;;0.45;0.30;;;;;;;22.08;36.04;101200.84;5007986;28;96856;-74
2023/04/28 01:17:18;;;;;;;0.35;0.30;;;;;;;22.07;36.31;101196.41;5018933;27;97165;-74
2023/04/28 01:19:45;;;;;;;0.35;0.28;;;;;;;22.07;35.94;101191.78;5016776;28;100267;-75
2023/04/28 01:22:15;;;;;;;0.50;0.43;;;;;;;22.07;35.86;101199.97;5016914;28;99779;-75
2023/04/28 01:24:42;;;;;;;0.60;0.50;;;;;;;22.07;36.00;101199.97;5020643;28;97067;-75
2023/04/28 01:27:12;;;;;;;0.40;0.35;;;;;;;22.06;35.93;101198.28;5011883;28;96914;-75
2023/04/28 01:29:40;;;;;;;0.30;0.30;;;;;;;22.07;36.12;101190.94;5024833;28;99637;-75
2023/04/28 01:32:06;;;;;;;0.30;0.28;;;;;;;22.07;35.88;101189.03;5028216;27;97274;-75
2023/04/28 01:34:33;;;;;;;0.40;0.30;;;;;;;22.07;36.00;101180.84;5006295;28;96847;-75
2023/04/28 01:37:00;;;;;;;0.65;0.30;;;;;;;22.07;35.75;101175.38;5023353;28;96795;-75
2023/04/28 01:39:26;;;;;;;0.47;0.40;;;;;;;22.08;36.27;101168.00;5001540;28;96851;-75
2023/04/28 01:41:54;;;;;;;0.50;0.50;;;;;;;22.06;36.26;101165.47;5020271;28;99866;-75
2023/04/28 01:44:21;;;;;;;0.32;0.25;;;;;;;22.07;35.75;101167.16;5025288;28;97222;-75
2023/04/28 01:46:47;;;;;;;0.40;0.30;;;;;;;22.07;36.03;101169.91;5029667;27;97119;-75
2023/04/28 01:49:14;;;;;;;0.73;0.40;;;;;;;22.06;35.86;101162.72;5029447;28;97766;-75
2023/04/28 01:51:41;;;;;;;0.40;0.35;;;;;;;22.07;35.81;101166.31;5026655;27;97368;-75
2023/04/28 01:54:08;;;;;;;0.70;0.50;;;;;;;22.07;36.04;101164.44;5015424;28;96637;-75
2023/04/28 01:56:35;;;;;;;0.15;0.10;;;;;;;22.07;36.22;101160.84;5022584;27;96698;-75
2023/04/28 01:59:03;;;;;;;0.77;0.30;;;;;;;22.06;36.01;101151.78;5015553;28;97698;-75
2023/04/28 02:01:30;;;;;;;0.95;0.40;;;;;;;22.06;35.92;101151.78;5026908;27;97460;-75
2023/04/28 02:03:57;;;;;;;0.40;0.40;;;;;;;22.06;35.81;101154.50;5002394;28;96819;-75
2023/04/28 02:06:24;;;;;;;0.40;0.30;;;;;;;22.07;36.00;101153.47;5020370;28;96952;-75
2023/04/28 02:08:50;;;;;;;0.40;0.30;;;;;;;22.07;35.97;101141.69;5026444;27;96921;-75
2023/04/28 02:11:17;;;;;;;0.43;0.40;;;;;;;22.07;36.21;101141.69;5021899;28;98845;-75
2023/04/28 02:13:44;;;;;;;0.40;0.40;;;;;;;22.07;36.11;101137.06;5024214;28;96771;-75
2023/04/28 02:16:10;;;;;;;0.38;0.30;;;;;;;22.07;35.88;101114.34;5026470;27;97145;-75
2023/04/28 02:18:37;;;;;;;0.40;0.30;;;;;;;22.06;35.83;101118.97;5021847;28;97099;-75
2023/04/28 02:21:11;;;;;;;0.30;0.30;;;;;;;22.06;36.00;101127.16;5020453;28;97330;-75
2023/04/28 02:23:41;;;;;;;0.40;0.40;;;;;;;22.06;36.13;101129.91;5032370;28;97309;-75
2023/04/28 02:26:07;;;;;;;0.40;0.32;;;;;;;22.05;35.91;101133.66;5027911;28;97521;-75
2023/04/28 02:28:34;;;;;;;0.40;0.30;;;;;;;22.05;35.98;101133.66;5023019;27;99304;-75
2023/04/28 02:31:08;;;;;;;0.60;0.40;;;;;;;22.06;36.21;101138.09;5012763;28;96779;-75
2023/04/28 02:33:36;;;;;;;0.40;0.40;;;;;;;22.06;36.26;101129.91;5024287;28;96960;-75
2023/04/28 02:36:04;;;;;;;1.33;0.45;;;;;;;22.06;35.79;101129.91;5019439;28;96842;-74
2023/04/28 02:38:31;;;;;;;0.30;0.30;;;;;;;22.06;36.12;101131.78;5026196;28;96715;-75
2023/04/28 02:41:03;;;;;;;0.60;0.40;;;;;;;22.06;36.17;101129.03;5021904;28;98506;-75
2023/04/28 02:43:31;;;;;;;0.52;0.30;;;;;;;22.05;36.00;101125.47;5021868;28;96712;-75
2023/04/28 02:45:58;;;;;;;0.52;0.40;;;;;;;22.05;36.25;101116.41;5018547;27;96934;-75
2023/04/28 02:48:25;;;;;;;0.47;0.30;;;;;;;22.05;36.43;101109.03;5021759;27;99984;-75
2023/04/28 02:50:52;;;;;;;0.38;0.30;;;;;;;22.06;36.11;101093.50;5021693;28;99392;-74
2023/04/28 02:53:20;;;;;;;0.40;0.40;;;;;;;22.05;36.00;101083.56;5026443;28;96730;-75
2023/04/28 02:55:47;;;;;;;0.40;0.40;;;;;;;22.06;36.12;101080.66;5026075;28;96684;-75
2023/04/28 02:58:14;;;;;;;0.30;0.30;;;;;;;22.06;35.88;101077.94;5020395;28;99268;-75
2023/04/28 03:00:41;;;;;;;0.35;0.35;;;;;;;22.06;35.82;101068.88;5018533;28;97669;-75
2023/04/28 03:03:08;;;;;;;0.55;0.30;;;;;;;22.06;35.92;101060.66;5026573;27;96745;-75
2023/04/28 03:05:34;;;;;;;0.50;0.35;;;;;;;22.07;36.00;101054.16;5023267;28;96911;-75
2023/04/28 03:08:01;;;;;;;0.43;0.32;;;;;;;22.06;36.08;101044.25;5017185;27;97106;-75
2023/04/28 03:10:27;;;;;;;0.40;0.40;;;;;;;22.07;35.85;101033.13;5022719;28;99165;-75
2023/04/28 03:12:54;;;;;;;0.40;0.30;;;;;;;22.06;35.98;101028.69;5025063;28;96969;-75
2023/04/28 03:15:21;;;;;;;0.52;0.40;;;;;;;22.07;36.42;101033.13;5022219;28;96920;-75
2023/04/28 03:17:47;;;;;;;0.47;0.35;;;;;;;22.07;36.30;101043.22;5024416;28;101196;-75
2023/04/28 03:20:14;;;;;;;0.50;0.30;;;;;;;22.08;35.90;101042.19;5021582;28;98337;-75
2023/04/28 03:22:41;;;;;;;0.40;0.30;;;;;;;22.07;35.95;101040.50;5016780;28;97139;-75
2023/04/28 03:25:08;;;;;;;0.73;0.40;;;;;;;22.07;36.28;101045.97;5023338;28;96738;-75
2023/04/28 03:27:43;;;;;;;0.43;0.40;;;;;;;22.07;36.19;101046.81;5013099;28;98242;-75
2023/04/28 03:30:10;;;;;;;0.50;0.32;;;;;;;22.07;36.12;101049.56;5023749;28;98833;-75
2023/04/28 03:32:37;;;;;;;0.30;0.30;;;;;;;22.07;36.00;101055.03;5025973;28;96711;-75
2023/04/28 03:35:04;;;;;;;0.30;0.30;;;;;;;22.07;35.83;101044.06;5014699;28;97134;-75
2023/04/28 03:37:31;;;;;;;0.50;0.40;;;;;;;22.07;36.28;101037.75;5007717;28;101195;-75
2023/04/28 03:39:57;;;;;;;0.50;0.40;;;;;;;22.07;35.94;101027.66;5014369;28;98198;-75
2023/04/28 03:42:24;;;;;;;0.32;0.30;;;;;;;22.07;35.93;101035.03;5017956;28;97017;-75
2023/04/28 03:45:08;;;;;;;0.45;0.40;;;;;;;22.06;35.82;101034.16;5013480;28;96986;-75
2023/04/28 03:47:35;;;;;;;0.43;0.30;;;;;;;22.07;35.80;101029.56;5018854;28;100945;-74
2023/04/28 03:50:02;;;;;;;0.60;0.40;;;;;;;22.07;35.86;101030.41;5017232;28;100230;-75
2023/04/28 03:52:29;;;;;;;0.30;0.30;;;;;;;22.07;36.16;101027.66;5020646;28;96784;-75
2023/04/28 03:54:56;;;;;;;0.85;0.40;;;;;;;22.07;36.17;101027.66;5025875;28;96930;-75
2023/04/28 03:57:22;;;;;;;0.60;0.40;;;;;;;22.08;35.79;101028.50;5013141;28;100833;-75
2023/04/28 03:59:50;;;;;;;0.40;0.30;;;;;;;22.08;35.85;101028.50;5026058;27;97216;-75
2023/04/28 04:02:16;;;;;;;0.52;0.30;;;;;;;22.07;35.97;101027.66;5022700;27;97190;-75
2023/04/28 04:04:44;;;;;;;0.38;0.38;;;;;;;22.07;35.88;101014.00;5021330;28;96781;-75
2023/04/28 04:07:10;;;;;;;0.40;0.30;;;;;;;22.09;35.97;101022.03;5018136;28;97076;-74
2023/04/28 04:09:37;;;;;;;0.50;0.40;;;;;;;22.08;36.21;101007.50;5026118;28;99318;-74
2023/04/28 04:12:05;;;;;;;0.50;0.40;;;;;;;22.08;35.84;101007.50;5017155;28;96883;-75
2023/04/28 04:14:32;;;;;;;0.32;0.30;;;;;;;22.08;36.15;101004.75;5021743;28;97444;-75
2023/04/28 04:16:59;;;;;;;0.40;0.30;;;;;;;22.08;36.09;101010.22;5016842;28;100340;-75
2023/04/28 04:19:26;;;;;;;0.50;0.30;;;;;;;22.08;35.98;101009.38;5019313;27;97770;-75
2023/04/28 04:21:54;;;;;;;0.35;0.32;;;;;;;22.08;36.17;101012.09;5022750;28;97738;-75
2023/04/28 04:24:20;;;;;;;0.40;0.35;;;;;;;22.08;35.98;101014.84;5023814;28;97182;-75
2023/04/28 04:26:47;;;;;;;0.45;0.40;;;;;;;22.08;35.96;101003.91;5018625;28;99413;-75
2023/04/28 04:29:28;;;;;;;0.40;0.30;;;;;;;22.07;35.93;101016.72;5017595;28;99878;-75
2023/04/28 04:31:55;;;;;;;0.60;0.50;;;;;;;22.08;35.92;101006.63;5023989;28;96822;-75
2023/04/28 04:34:22;;;;;;;0.43;0.38;;;;;;;22.08;35.87;101007.50;5023786;28;96906;-75
2023/04/28 04:36:48;;;;;;;0.50;0.38;;;;;;;22.08;36.13;100992.97;5023975;28;98024;-75
2023/04/28 04:39:15;;;;;;;0.63;0.40;;;;;;;22.08;36.25;100991.06;5023136;28;99104;-75
2023/04/28 04:41:41;;;;;;;0.50;0.50;;;;;;;22.07;35.98;100989.38;5017678;28;96870;-75
2023/04/28 04:44:31;;;;;;;0.40;0.30;;;;;;;22.08;35.87;100990.22;5016086;27;96748;-75
2023/04/28 04:46:58;;;;;;;0.68;0.30;;;;;;;22.07;36.19;100989.38;4999459;28;98634;-74
2023/04/28 04:49:25;;;;;;;0.40;0.35;;;;;;;22.08;36.09;100991.06;5017526;28;100516;-75
2023/04/28 04:51:52;;;;;;;0.50;0.40;;;;;;;22.08;36.11;100990.22;5021802;27;96749;-75
2023/04/28 04:54:18;;;;;;;0.30;0.30;;;;;;;22.08;36.04;100990.22;5020998;28;96923;-75
2023/04/28 04:56:45;;;;;;;0.40;0.40;;;;;;;22.09;36.12;100995.50;5022168;28;100498;-75
2023/04/28 04:59:19;;;;;;;0.40;0.30;;;;;;;22.08;36.16;100992.97;5020012;28;97205;-75
2023/04/28 05:01:57;;;;;;;0.30;0.30;;;;;;;22.08;36.06;100996.53;5026107;28;96915;-75
2023/04/28 05:04:23;;;;;;;0.32;0.32;;;;;;;22.08;36.31;100990.22;5027869;27;96914;-75
2023/04/28 05:06:51;;;;;;;0.40;0.40;;;;;;;22.09;36.21;100994.66;5025286;28;99665;-75
2023/04/28 05:09:18;;;;;;;0.57;0.47;;;;;;;22.09;35.96;100981.00;5027593;28;98720;-75
2023/04/28 05:11:45;;;;;;;0.57;0.47;;;;;;;22.08;35.84;100980.13;5020757;28;98743;-75
2023/04/28 05:14:11;;;;;;;0.50;0.40;;;;;;;22.08;35.74;100980.13;5025640;28;96955;-75
2023/04/28 05:16:40;;;;;;;0.30;0.25;;;;;;;22.09;35.97;100981.84;5027771;27;98623;-75
2023/04/28 05:19:15;;;;;;;0.40;0.40;;;;;;;22.08;36.16;100974.66;5021622;28;98700;-75
2023/04/28 05:21:42;;;;;;;0.60;0.40;;;;;;;22.09;36.04;100976.38;5029557;28;96601;-75
2023/04/28 05:24:08;;;;;;;0.45;0.30;;;;;;;22.09;36.21;100978.25;5024551;28;97262;-75
2023/04/28 05:26:35;;;;;;;0.40;0.30;;;;;;;22.08;35.92;100982.88;5028830;28;100984;-75
2023/04/28 05:29:06;;;;;;;0.40;0.30;;;;;;;22.10;36.06;100983.53;5025300;27;96947;-74
2023/04/28 05:31:33;;;;;;;0.20;0.20;;;;;;;22.09;36.27;100976.38;5026105;27;96755;-75
2023/04/28 05:34:00;;;;;;;0.65;0.30;;;;;;;22.09;36.00;100968.16;5024260;27;97472;-75
2023/04/28 05:36:27;;;;;;;0.40;0.38;;;;;;;22.10;36.20;100964.41;5006379;28;100250;-75
2023/04/28 05:38:53;;;;;;;0.30;0.30;;;;;;;22.11;36.15;100957.03;5027222;27;97455;-74
2023/04/28 05:41:20;;;;;;;0.30;0.30;;;;;;;22.11;36.20;100951.56;5029667;27;96681;-75
2023/04/28 05:43:49;;;;;;;0.50;0.30;;;;;;;22.10;36.14;100950.72;5019119;28;96696;-75
2023/04/28 05:46:17;;;;;;;0.40;0.40;;;;;;;22.11;35.96;100946.94;5022328;28;98185;-75
2023/04/28 05:48:57;;;;;;;0.65;0.47;;;;;;;22.09;35.91;100937.22;5021730;27;98382;-75
2023/04/28 05:51:26;;;;;;;0.60;0.40;;;;;;;22.11;35.99;100940.63;5024912;28;96996;-75
2023/04/28 05:53:52;;;;;;;0.32;0.30;;;;;;;22.12;36.08;100950.53;5009110;28;96903;-75
2023/04/28 05:56:19;;;;;;;0.47;0.30;;;;;;;22.11;35.99;100955.16;5024677;28;100260;-76
2023/04/28 05:58:49;;;;;;;0.47;0.40;;;;;;;22.11;35.82;100960.63;5019558;28;99380;-75
2023/04/28 06:01:16;;;;;;;0.40;0.40;;;;;;;22.11;35.80;100965.25;5019089;28;97358;-76
2023/04/28 06:03:43;;;;;;;0.70;0.57;;;;;;;22.11;35.90;100966.09;5021234;27;98341;-75
2023/04/28 06:06:10;;;;;;;0.60;0.40;;;;;;;22.11;36.13;100959.78;5024339;27;97633;-75
2023/04/28 06:08:37;;;;;;;0.50;0.30;;;;;;;22.11;36.17;100946.94;5022252;27;97379;-75
2023/04/28 06:11:05;;;;;;;0.85;0.50;;;;;;;22.13;36.06;100953.09;5019103;28;97504;-75
2023/04/28 06:13:31;;;;;;;0.38;0.32;;;;;;;22.12;36.01;100948.66;5022542;28;96817;-75
2023/04/28 06:15:58;;;;;;;0.30;0.30;;;;;;;22.12;36.14;100956.84;5021018;27;97328;-75
2023/04/28 06:18:25;;;;;;;0.30;0.30;;;;;;;22.12;36.23;100962.34;5017564;28;99372;-75
2023/04/28 06:20:52;;;;;;;0.30;0.30;;;;;;;22.12;36.16;100965.06;5020476;28;96796;-74
2023/04/28 06:23:19;;;;;;;0.30;0.30;;;;;;;22.13;35.88;100954.97;5023979;27;97149;-76
2023/04/28 06:25:47;;;;;;;0.30;0.30;;;;;;;22.13;35.97;100955.81;5022965;28;96971;-76
2023/04/28 06:28:14;;;;;;;0.45;0.30;;;;;;;22.12;35.98;100948.66;5019865;28;97146;-75
2023/04/28 06:30:40;;;;;;;0.70;0.52;;;;;;;22.13;36.16;100957.72;5022767;28;96879;-75
2023/04/28 06:33:07;;;;;;;0.47;0.47;;;;;;;22.14;36.16;100957.53;5021656;28;96732;-75
2023/04/28 06:35:35;;;;;;;0.50;0.40;;;;;;;22.14;36.14;100964.88;5013839;28;99225;-76
2023/04/28 06:38:03;;;;;;;0.30;0.30;;;;;;;22.13;36.23;100964.03;5016651;28;97405;-75
2023/04/28 06:40:30;;;;;;;0.32;0.32;;;;;;;22.13;35.82;100955.81;5020363;28;96861;-75
2023/04/28 06:42:59;;;;;;;0.73;0.40;;;;;;;22.13;35.82;100955.81;5002200;28;96973;-75
2023/04/28 06:45:48;;;;;;;0.70;0.35;;;;;;;22.13;35.73;100944.03;4978860;28;1166246;-75
2023/04/28 06:48:15;;;;;;;0.30;0.30;;;;;;;22.13;35.97;100947.63;5009571;28;96807;-75
2023/04/28 06:50:41;;;;;;;0.52;0.40;;;;;;;22.13;36.22;100950.34;5010622;28;97902;-76
2023/04/28 06:53:10;;;;;;;0.40;0.30;;;;;;;22.14;36.15;100943.84;5010621;28;96729;-75
2023/04/28 06:55:36;;;;;;;0.60;0.50;;;;;;;22.13;35.96;100941.31;5010233;28;98288;-75
2023/04/28 06:58:03;;;;;;;0.82;0.40;;;;;;;22.13;36.27;100944.88;5018553;28;98388;-76
2023/04/28 07:00:33;;;;;;;0.52;0.40;;;;;;;22.13;36.06;100936.69;5016939;28;97305;-76
2023/04/28 07:03:00;;;;;;;0.20;0.20;;;;;;;22.14;36.13;100941.13;5015376;28;96768;-75
2023/04/28 07:05:27;;;;;;;0.63;0.40;;;;;;;22.13;36.16;100944.88;5021857;27;97926;-75
2023/04/28 07:07:54;;;;;;;0.40;0.40;;;;;;;22.14;35.78;100937.53;5014491;28;96718;-75
2023/04/28 07:10:20;;;;;;;0.47;0.35;;;;;;;22.13;36.26;100939.41;5004026;28;96773;-75
2023/04/28 07:12:51;;;;;;;0.60;0.40;;;;;;;22.14;35.91;100940.25;5023066;28;96840;-75
2023/04/28 07:15:17;;;;;;;1.63;0.43;;;;;;;22.13;35.90;100944.03;5019715;27;96862;-76
2023/04/28 07:17:44;;;;;;;0.40;0.30;;;;;;;22.12;36.07;100937.72;5017751;27;97918;-75
2023/04/28 07:20:11;;;;;;;0.90;0.45;;;;;;;22.13;36.17;100939.41;5020213;27;96721;-75
2023/04/28 07:22:38;;;;;;;0.43;0.40;;;;;;;22.12;36.20;100937.72;4997363;28;96992;-75
2023/04/28 07:25:05;;;;;;;0.47;0.40;;;;;;;22.13;35.95;100938.56;5021061;28;97436;-75
2023/04/28 07:27:31;;;;;;;0.50;0.40;;;;;;;22.13;36.07;100944.88;5023229;28;96745;-75
2023/04/28 07:29:58;;;;;;;0.50;0.32;;;;;;;22.12;35.86;100942.34;5025012;28;96858;-75
2023/04/28 07:32:24;;;;;;;0.38;0.32;;;;;;;22.12;36.02;100943.19;5010304;28;96708;-75
2023/04/28 07:34:51;;;;;;;0.47;0.40;;;;;;;22.13;36.22;100941.31;5009250;28;99790;-75
2023/04/28 07:37:18;;;;;;;0.43;0.40;;;;;;;22.13;36.04;100933.09;5010371;28;96867;-75
2023/04/28 07:39:44;;;;;;;0.57;0.40;;;;;;;22.12;35.97;100937.72;5011522;28;96667;-75
2023/04/28 07:42:12;;;;;;;0.43;0.35;;;;;;;22.11;35.83;100936.00;5022481;28;97245;-75
2023/04/28 07:44:39;;;;;;;0.60;0.60;;;;;;;22.11;35.82;100936.00;5011890;28;96871;-75
2023/04/28 07:47:05;;;;;;;0.50;0.43;;;;;;;22.11;35.84;100930.53;5009788;28;96799;-75
2023/04/28 07:49:32;;;;;;;0.90;0.50;;;;;;;22.11;36.23;100921.47;5012150;28;96654;-76
2023/04/28 07:51:58;;;;;;;0.68;0.32;;;;;;;22.09;36.02;100929.88;5026988;27;96993;-75
2023/04/28 07:54:25;;;;;;;0.50;0.40;;;;;;;22.11;36.15;100933.28;5011464;28;97899;-75
2023/04/28 07:56:52;;;;;;;0.47;0.40;;;;;;;22.11;35.70;100926.94;5009912;28;96795;-75
2023/04/28 07:59:18;;;;;;;0.50;0.40;;;;;;;22.11;35.86;100927.81;5014753;28;96863;-76
2023/04/28 08:01:45;;;;;;;1.02;0.50;;;;;;;22.11;35.86;100926.94;5029310;27;96876;-75
2023/04/28 08:04:11;;;;;;;0.50;0.40;;;;;;;22.11;35.89;100924.22;5015276;27;96739;-75
2023/04/28 08:06:39;;;;;;;0.32;0.30;;;;;;;22.10;36.12;100928.84;5016728;28;99492;-76
2023/04/28 08:09:06;;;;;;;0.85;0.40;;;;;;;22.11;36.09;100924.22;5015094;28;97088;-76
2023/04/28 08:11:33;;;;;;;0.65;0.55;;;;;;;22.10;35.84;100923.38;5017665;28;96794;-75
2023/04/28 08:14:01;;;;;;;0.60;0.43;;;;;;;22.10;35.80;100920.63;5010713;28;98009;-75
2023/04/28 08:16:30;;;;;;;0.50;0.50;;;;;;;22.09;35.90;100916.19;5029939;28;97148;-75
2023/04/28 08:18:56;;;;;;;0.40;0.30;;;;;;;22.09;36.04;100924.41;5029147;28;96768;-76
2023/04/28 08:21:23;;;;;;;0.40;0.40;;;;;;;22.10;35.84;100931.56;5011126;28;96743;-76
2023/04/28 08:23:50;;;;;;;0.77;0.40;;;;;;;22.09;35.84;100934.50;5010289;28;97751;-76
2023/04/28 08:26:16;;;;;;;0.40;0.30;;;;;;;22.09;36.27;100932.59;5010236;28;97105;-76
2023/04/28 08:28:43;;;;;;;0.40;0.32;;;;;;;22.09;35.79;100949.00;5010323;28;96714;-75
2023/04/28 08:31:10;;;;;;;0.40;0.35;;;;;;;22.09;36.09;100945.44;5009698;28;96962;-76
2023/04/28 08:33:36;;;;;;;0.38;0.38;;;;;;;22.08;36.25;100939.09;5008871;28;96781;-75
2023/04/28 08:36:03;;;;;;;0.40;0.40;;;;;;;22.09;36.14;100939.97;5010554;28;97601;-75
2023/04/28 08:38:30;;;;;;;0.50;0.40;;;;;;;22.09;35.96;100934.50;4992706;28;97106;-76
2023/04/28 08:40:57;;;;;;;0.55;0.50;;;;;;;22.08;35.97;100933.63;5009678;28;96900;-75
2023/04/28 08:43:24;;;;;;;0.47;0.45;;;;;;;22.10;36.11;100931.56;5010197;28;98067;-75
2023/04/28 08:45:50;;;;;;;0.40;0.38;;;;;;;22.10;35.90;100931.56;5011454;28;97348;-75
2023/04/28 08:48:19;;;;;;;0.63;0.40;;;;;;;22.11;35.87;100940.63;5016656;28;96767;-75
2023/04/28 08:50:52;;;;;;;0.73;0.55;;;;;;;22.12;36.01;100936.84;5016209;28;97447;-76
2023/04/28 08:53:24;;;;;;;0.40;0.40;;;;;;;22.12;36.10;100937.72;4993383;28;99896;-75
2023/04/28 08:55:56;;;;;;;0.50;0.40;;;;;;;22.12;36.02;100940.44;5009924;28;97936;-75
2023/04/28 08:58:23;;;;;;;0.60;0.57;;;;;;;22.12;36.28;100936.84;5011060;28;97340;-76
2023/04/28 09:00:51;;;;;;;0.52;0.40;;;;;;;22.13;36.13;100935.81;5013566;28;96782;-76
2023/04/28 09:03:18;;;;;;;0.32;0.30;;;;;;;22.13;36.13;100935.81;5010466;28;97732;-76
2023/04/28 09:05:45;;;;;;;0.65;0.50;;;;;;;22.13;35.76;100930.34;5020585;27;96969;-76
2023/04/28 09:08:12;;;;;;;0.50;0.40;;;;;;;22.13;35.82;100933.09;5024600;28;96817;-76
2023/04/28 09:10:39;;;;;;;0.63;0.40;;;;;;;22.13;35.85;100935.81;5015567;28;96700;-76
2023/04/28 09:13:05;;;;;;;0.57;0.50;;;;;;;22.13;35.90;100939.41;5029329;28;97785;-75
2023/04/28 09:15:34;;;;;;;0.45;0.30;;;;;;;22.14;36.14;100932.91;5016153;27;97406;-76
2023/04/28 09:18:03;;;;;;;0.40;0.40;;;;;;;22.14;36.03;100932.91;5024910;28;97212;-75
2023/04/28 09:20:31;;;;;;;0.70;0.40;;;;;;;22.15;36.27;100926.41;5024300;28;96788;-76
2023/04/28 09:23:20;;;;;;;0.47;0.30;;;;;;;22.15;35.96;100928.28;5014694;28;97854;-76
2023/04/28 09:26:09;;;;;;;0.80;0.50;;;;;;;22.15;35.78;100925.56;5008052;28;97622;-76
2023/04/28 09:28:36;;;;;;;0.40;0.40;;;;;;;22.12;36.19;100915.84;5022638;28;97119;-76
2023/04/28 09:31:03;;;;;;;0.60;0.40;;;;;;;22.13;36.00;100923.00;5022555;27;96843;-75
2023/04/28 09:33:30;;;;;;;0.80;0.57;;;;;;;22.13;36.22;100922.16;5019877;28;96822;-75
2023/04/28 09:35:56;;;;;;;0.95;0.65;;;;;;;22.14;35.84;100927.44;5015501;28;97439;-75
2023/04/28 09:38:24;;;;;;;0.50;0.45;;;;;;;22.14;35.70;100926.59;5013629;27;96670;-75
2023/04/28 09:40:53;;;;;;;0.57;0.40;;;;;;;22.14;36.15;100923.84;5024406;28;96702;-75
2023/04/28 09:43:33;;;;;;;0.30;0.30;;;;;;;22.15;35.92;100925.56;5020342;28;96927;-75
2023/04/28 09:46:02;;;;;;;0.70;0.50;;;;;;;22.13;35.85;100925.75;5017377;28;96747;-75
2023/04/28 09:48:30;;;;;;;0.40;0.40;;;;;;;22.12;35.86;100932.25;5013038;28;96759;-74
2023/04/28 09:50:59;;;;;;;0.50;0.38;;;;;;;22.13;36.31;100925.75;5013969;28;97014;-75
2023/04/28 09:53:26;;;;;;;0.40;0.40;;;;;;;22.12;36.15;100920.44;5013213;28;96686;-75
2023/04/28 09:55:55;;;;;;;0.50;0.40;;;;;;;22.12;36.13;100914.97;5022701;28;96825;-75
2023/04/28 09:58:23;;;;;;;0.57;0.40;;;;;;;22.12;36.10;100921.31;5022320;27;97043;-75
2023/04/28 10:00:55;;;;;;;0.50;0.50;;;;;;;22.11;35.93;100919.59;5022124;27;97548;-75
2023/04/28 10:03:28;;;;;;;0.70;0.50;;;;;;;22.12;36.11;100924.03;5019795;27;97789;-75
2023/04/28 10:05:57;;;;;;;0.85;0.40;;;;;;;22.12;36.01;100923.19;5013744;27;97825;-75
2023/04/28 10:08:26;;;;;;;0.70;0.40;;;;;;;22.11;36.15;100925.06;5023150;27;96814;-75
2023/04/28 10:10:54;;;;;;;0.70;0.40;;;;;;;22.11;36.35;100918.75;5021999;27;96834;-75
2023/04/28 10:13:21;;;;;;;0.60;0.50;;;;;;;22.11;36.36;100925.06;5023207;27;96907;-75
2023/04/28 10:15:49;;;;;;;0.50;0.40;;;;;;;22.10;36.00;100928.84;5006258;28;98895;-75
2023/04/28 10:18:17;;;;;;;0.70;0.43;;;;;;;22.10;36.28;100931.56;5022588;28;96832;-75
2023/04/28 10:20:58;;;;;;;0.50;0.30;;;;;;;22.10;35.97;100928.84;5022747;27;97261;-75
2023/04/28 10:23:37;;;;;;;0.35;0.30;;;;;;;22.11;35.96;100921.47;5021045;28;96753;-75
2023/04/28 10:26:09;;;;;;;0.70;0.38;;;;;;;22.09;35.99;100929.88;5013468;28;96770;-75
2023/04/28 10:28:43;;;;;;;0.60;0.52;;;;;;;22.09;36.34;100931.75;5023586;28;97251;-75
2023/04/28 10:31:14;;;;;;;0.77;0.52;;;;;;;22.09;36.31;100924.41;5019188;27;97393;-75
2023/04/28 10:33:41;;;;;;;0.60;0.40;;;;;;;22.09;36.30;100924.41;5012016;28;96835;-75
2023/04/28 10:36:08;;;;;;;0.60;0.43;;;;;;;22.09;36.41;100921.66;5010385;28;99433;-76
2023/04/28 10:39:00;;;;;;;0.90;0.50;;;;;;;22.09;36.29;100921.66;5012557;28;96923;-75
2023/04/28 10:41:31;;;;;;;0.30;0.30;;;;;;;22.09;36.10;100920.81;5010875;28;96915;-75
2023/04/28 10:43:57;;;;;;;1.15;0.50;;;;;;;22.08;36.22;100922.69;5018383;28;97735;-75
2023/04/28 10:46:24;;;;;;;0.40;0.40;;;;;;;22.09;36.18;100910.72;5015909;28;97614;-75
2023/04/28 10:48:52;;;;;;;0.63;0.40;;;;;;;22.09;36.08;100915.34;5025395;28;97201;-75
2023/04/28 10:51:19;;;;;;;0.50;0.40;;;;;;;22.09;36.34;100918.06;5015432;27;97108;-76
2023/04/28 10:53:49;;;;;;;0.40;0.40;;;;;;;22.08;35.98;100917.22;5017686;28;100324;-75
2023/04/28 10:56:26;;;;;;;0.40;0.30;;;;;;;22.08;35.92;100917.22;5026013;27;97410;-75
2023/04/28 10:58:57;;;;;;;0.52;0.40;;;;;;;22.08;36.16;100917.22;5019265;28;96840;-75
2023/04/28 11:01:28;;;;;;;0.85;0.50;;;;;;;22.07;36.29;100912.78;5017320;28;96822;-75
2023/04/28 11:03:59;;;;;;;0.50;0.40;;;;;;;22.07;36.19;100915.53;5012268;28;96742;-75
2023/04/28 11:06:34;;;;;;;1.23;0.50;;;;;;;22.08;36.48;100916.38;5022646;28;96758;-74
2023/04/28 11:09:02;;;;;;;0.60;0.50;;;;;;;22.07;36.21;100922.88;5013573;27;96804;-76
2023/04/28 11:11:33;;;;;;;0.50;0.40;;;;;;;22.06;36.42;100916.56;5012241;28;96893;-75
2023/04/28 11:14:18;;;;;;;0.50;0.45;;;;;;;22.07;36.05;100911.94;5011490;28;97172;-75
2023/04/28 11:16:59;;;;;;;0.85;0.40;;;;;;;22.07;36.31;100911.94;5019705;28;98046;-75
2023/04/28 11:19:27;;;;;;;0.52;0.40;;;;;;;22.05;36.10;100912.13;5015452;28;97171;-75
2023/04/28 11:21:57;;;;;;;0.60;0.45;;;;;;;22.06;36.00;100919.28;5016116;28;97059;-75
2023/04/28 11:24:26;;;;;;;0.38;0.38;;;;;;;22.05;36.17;100917.59;5024427;28;96610;-76
2023/04/28 11:26:52;;;;;;;0.88;0.40;;;;;;;22.05;36.29;100914.84;5027742;28;96935;-75
2023/04/28 11:29:32;;;;;;;0.50;0.43;;;;;;;22.07;36.46;100918.25;5021127;28;96892;-76
2023/04/28 11:32:00;;;;;;;0.80;0.50;;;;;;;22.05;36.01;100908.53;5032206;27;96737;-75